Prairie Lea, Texas
Current Conditions -  °F | °C
As of 7:24 AM on Friday 28 Nov 2014 (Local Time) from KBAZ Reporting Station
Overcast Overcast  
Wind Chill: 48°   Ceiling: 1300
Heat Index: 48°   Visibility: 10mi
Dew Point: 43°   Wind: 0mph
Humidity: 83%   Direction: NA
Pressure: 30.31"   Gusts: NA
Location:  29.73°N, 97.75°W
Report Text: KBAZ 281324Z 00000KT 10SM BKN013 BKN026 OVC033 09/06 A3031 RMK AO2 T00890061 $
Loading
Personal Weather Stations






























Interactive Weather Map New forecast layout! Learn more

10-Day Weather Forecast

Advertisements
Track Severe Weather on mobile